Wilson Gaeta — 8PTS — position and weather

sailwx.info

Track history (hours):
 
Tides and Currents Weather Stations Pressure Air Temp Water Temp Dewpoint Dewpoint Depression Visibility Wind Speed Wind Dir Waves Ship Positions

Wilson Gaeta

Last reported at 2015-Jul-06 15:31 UTC. Time now 2015-Jul-06 15:41 UTC.
Position N 52°25' E 004°49'.

Length 88 m; draft 5.4 m.

Type: Cargo ship. MMSI: 314237000.

Date/timePositionNaut miles runAvg speedWind from/ knotsBaromVisibWave heightAir tempDewpointWater temp
2015-Jul-06 15:31N 52°25' E 004°49'0 0.0
2015-Jul-06 14:31N 52°25' E 004°49'0 0.3
2015-Jul-06 13:32N 52°25' E 004°49'0 0.0
2015-Jul-06 12:32N 52°25' E 004°49'0 0.0
2015-Jul-06 11:33N 52°25' E 004°49'0 0.0
2015-Jul-06 10:32N 52°25' E 004°49'0 0.0
2015-Jul-06 09:32N 52°25' E 004°49'3 3.0
2015-Jul-06 08:34N 52°26' E 004°45'5 5.4
2015-Jul-06 07:34N 52°28' E 004°37'5 4.9
2015-Jul-06 06:34N 52°28' E 004°29'9 8.5
2015-Jul-06 05:33N 52°29' E 004°15'7 7.4
2015-Jul-06 04:34N 52°34' E 004°06'8 8.2
2015-Jul-06 03:33N 52°42' E 004°02'8 8.2
2015-Jul-06 02:33N 52°50' E 003°58'8 8.2
2015-Jul-06 01:34N 52°58' E 004°01'8 8.4
2015-Jul-06 00:33N 53°04' E 004°11'8 8.5
2015-Jul-05 23:34N 53°09' E 004°21'19 8.3
2015-Jul-05 21:16N 53°27' E 004°34'22 8.1
2015-Jul-05 18:32N 53°48' E 004°47'9 8.8
2015-Jul-05 17:33N 53°56' E 004°52'9 8.7
2015-Jul-05 16:33N 54°04' E 004°57'9 8.7
2015-Jul-05 15:33N 54°13' E 004°54'38 9.1
2015-Jul-05 11:18N 54°49' E 004°33'  
2015-Jul-02 10:18N 63°34' E 009°22'7 9.0
2015-Jul-02 09:34N 63°38' E 009°35'7 6.7
2015-Jul-02 08:34N 63°36' E 009°49'9 8.6
2015-Jul-02 07:33N 63°28' E 010°00'9 9.2
2015-Jul-02 06:34N 63°29' E 010°21'9 9.1
2015-Jul-02 05:34N 63°36' E 010°35'9 9.5
2015-Jul-02 04:34N 63°42' E 010°51'9 9.2
2015-Jul-02 03:34N 63°49' E 011°04'1 0.1
2015-Jul-01 04:29N 63°51' E 011°05'8 9.0
2015-Jul-01 03:33N 63°43' E 010°56'9 9.3
2015-Jul-01 02:33N 63°38' E 010°39'9 9.1
2015-Jul-01 01:33N 63°31' E 010°24'5 5.3
2015-Jul-01 00:33N 63°26' E 010°22'0 0.0
2015-Jun-30 23:33N 63°26' E 010°22'0 0.0
2015-Jun-30 22:33N 63°26' E 010°22'0 0.0
2015-Jun-30 21:33N 63°26' E 010°22'0 0.0
2015-Jun-30 20:33N 63°26' E 010°22'0 0.0
2015-Jun-30 19:33N 63°26' E 010°22'0 0.0
2015-Jun-30 18:30N 63°26' E 010°22'0 0.0
2015-Jun-30 17:33N 63°26' E 010°22'0 0.0
2015-Jun-30 16:33N 63°26' E 010°22'0 0.0
2015-Jun-30 15:33N 63°26' E 010°22'0 0.0
2015-Jun-30 14:33N 63°26' E 010°22'0 0.0
2015-Jun-30 13:33N 63°26' E 010°22'0 0.0
2015-Jun-30 12:33N 63°26' E 010°22'0 0.0
2015-Jun-30 11:33N 63°26' E 010°22'0 0.0
2015-Jun-30 10:33N 63°26' E 010°22'0 0.0
2015-Jun-30 09:33N 63°26' E 010°22'0 0.0
2015-Jun-30 08:33N 63°26' E 010°22'0 0.0
2015-Jun-30 07:33N 63°26' E 010°22'0 0.0
2015-Jun-30 06:33N 63°26' E 010°22'0 0.0
2015-Jun-30 05:33N 63°26' E 010°22'0 0.0
2015-Jun-30 04:33N 63°26' E 010°22'4 4.4
2015-Jun-30 03:33N 63°28' E 010°13'10 9.9
2015-Jun-30 02:33N 63°32' E 009°53'9 8.7
2015-Jun-30 01:33N 63°39' E 009°42'  
2015-Jun-27 06:04N 54°17' E 005°05'5 9.2
2015-Jun-27 05:33N 54°12' E 005°07'9 9.0
2015-Jun-27 04:31N 54°03' E 005°07'10 9.9
2015-Jun-27 03:29N 53°53' E 005°01'910.1
2015-Jun-27 02:33N 53°44' E 004°55'1010.2
2015-Jun-27 01:33N 53°35' E 004°49'1110.5
2015-Jun-27 00:31N 53°25' E 004°42'2211.2
2015-Jun-26 22:31N 53°05' E 004°26'1010.6
2015-Jun-26 21:33N 52°56' E 004°18'1010.2
2015-Jun-26 20:33N 52°47' E 004°10'10 9.7
2015-Jun-26 19:33N 52°40' E 003°59'9 9.3
2015-Jun-26 18:33N 52°33' E 003°48'  
Track history (hours):
 
Tides and Currents Weather Stations Pressure Air Temp Water Temp Dewpoint Dewpoint Depression Visibility Wind Speed Wind Dir Waves Ship Positions

Wilson Gaeta

Last reported at 2015-Jul-06 15:31 UTC. Time now 2015-Jul-06 15:41 UTC.
Position N 52°25' E 004°49'.

Length 88 m; draft 5.4 m.

Type: Cargo ship. MMSI: 314237000.

Date/timePositionNaut miles runAvg speedWind from/ knotsBaromVisibWave heightAir tempDewpointWater temp
2015-Jul-06 15:31N 52°25' E 004°49'0 0.0
2015-Jul-06 14:31N 52°25' E 004°49'0 0.3
2015-Jul-06 13:32N 52°25' E 004°49'0 0.0
2015-Jul-06 12:32N 52°25' E 004°49'0 0.0
2015-Jul-06 11:33N 52°25' E 004°49'0 0.0
2015-Jul-06 10:32N 52°25' E 004°49'0 0.0
2015-Jul-06 09:32N 52°25' E 004°49'3 3.0
2015-Jul-06 08:34N 52°26' E 004°45'5 5.4
2015-Jul-06 07:34N 52°28' E 004°37'5 4.9
2015-Jul-06 06:34N 52°28' E 004°29'9 8.5
2015-Jul-06 05:33N 52°29' E 004°15'7 7.4
2015-Jul-06 04:34N 52°34' E 004°06'8 8.2
2015-Jul-06 03:33N 52°42' E 004°02'8 8.2
2015-Jul-06 02:33N 52°50' E 003°58'8 8.2
2015-Jul-06 01:34N 52°58' E 004°01'8 8.4
2015-Jul-06 00:33N 53°04' E 004°11'8 8.5
2015-Jul-05 23:34N 53°09' E 004°21'19 8.3
2015-Jul-05 21:16N 53°27' E 004°34'22 8.1
2015-Jul-05 18:32N 53°48' E 004°47'9 8.8
2015-Jul-05 17:33N 53°56' E 004°52'9 8.7
2015-Jul-05 16:33N 54°04' E 004°57'9 8.7
2015-Jul-05 15:33N 54°13' E 004°54'38 9.1
2015-Jul-05 11:18N 54°49' E 004°33'  
2015-Jul-02 10:18N 63°34' E 009°22'7 9.0
2015-Jul-02 09:34N 63°38' E 009°35'7 6.7
2015-Jul-02 08:34N 63°36' E 009°49'9 8.6
2015-Jul-02 07:33N 63°28' E 010°00'9 9.2
2015-Jul-02 06:34N 63°29' E 010°21'9 9.1
2015-Jul-02 05:34N 63°36' E 010°35'9 9.5
2015-Jul-02 04:34N 63°42' E 010°51'9 9.2
2015-Jul-02 03:34N 63°49' E 011°04'1 0.1
2015-Jul-01 04:29N 63°51' E 011°05'8 9.0
2015-Jul-01 03:33N 63°43' E 010°56'9 9.3
2015-Jul-01 02:33N 63°38' E 010°39'9 9.1
2015-Jul-01 01:33N 63°31' E 010°24'5 5.3
2015-Jul-01 00:33N 63°26' E 010°22'0 0.0
2015-Jun-30 23:33N 63°26' E 010°22'0 0.0
2015-Jun-30 22:33N 63°26' E 010°22'0 0.0
2015-Jun-30 21:33N 63°26' E 010°22'0 0.0
2015-Jun-30 20:33N 63°26' E 010°22'0 0.0
2015-Jun-30 19:33N 63°26' E 010°22'0 0.0
2015-Jun-30 18:30N 63°26' E 010°22'0 0.0
2015-Jun-30 17:33N 63°26' E 010°22'0 0.0
2015-Jun-30 16:33N 63°26' E 010°22'0 0.0
2015-Jun-30 15:33N 63°26' E 010°22'0 0.0
2015-Jun-30 14:33N 63°26' E 010°22'0 0.0
2015-Jun-30 13:33N 63°26' E 010°22'0 0.0
2015-Jun-30 12:33N 63°26' E 010°22'0 0.0
2015-Jun-30 11:33N 63°26' E 010°22'0 0.0
2015-Jun-30 10:33N 63°26' E 010°22'0 0.0
2015-Jun-30 09:33N 63°26' E 010°22'0 0.0
2015-Jun-30 08:33N 63°26' E 010°22'0 0.0
2015-Jun-30 07:33N 63°26' E 010°22'0 0.0
2015-Jun-30 06:33N 63°26' E 010°22'0 0.0
2015-Jun-30 05:33N 63°26' E 010°22'0 0.0
2015-Jun-30 04:33N 63°26' E 010°22'4 4.4
2015-Jun-30 03:33N 63°28' E 010°13'10 9.9
2015-Jun-30 02:33N 63°32' E 009°53'9 8.7
2015-Jun-30 01:33N 63°39' E 009°42'  
2015-Jun-27 06:04N 54°17' E 005°05'5 9.2
2015-Jun-27 05:33N 54°12' E 005°07'9 9.0
2015-Jun-27 04:31N 54°03' E 005°07'10 9.9
2015-Jun-27 03:29N 53°53' E 005°01'910.1
2015-Jun-27 02:33N 53°44' E 004°55'1010.2
2015-Jun-27 01:33N 53°35' E 004°49'1110.5
2015-Jun-27 00:31N 53°25' E 004°42'2211.2
2015-Jun-26 22:31N 53°05' E 004°26'1010.6
2015-Jun-26 21:33N 52°56' E 004°18'1010.2
2015-Jun-26 20:33N 52°47' E 004°10'10 9.7
2015-Jun-26 19:33N 52°40' E 003°59'9 9.3
2015-Jun-26 18:33N 52°33' E 003°48'  

Dump ship's entire track history